createdAt,value
2019-03-29T00:03:30.723Z,17.27
2019-03-29T00:08:32.703Z,19.35
2019-03-29T00:13:35.050Z,18.55
2019-03-29T00:18:37.753Z,17.45
2019-03-29T00:23:39.881Z,16.60
2019-03-29T00:28:42.124Z,15.00
2019-03-29T00:33:44.344Z,17.00
2019-03-29T00:38:49.012Z,17.35
2019-03-29T00:43:51.659Z,22.75
2019-03-29T00:48:54.798Z,16.90
2019-03-29T00:53:59.377Z,15.35
2019-03-29T00:59:01.743Z,17.50
2019-03-29T01:04:04.301Z,15.53
2019-03-29T01:09:06.639Z,17.23
2019-03-29T01:14:08.853Z,18.00
2019-03-29T01:19:11.510Z,14.85
2019-03-29T01:24:14.140Z,20.52
2019-03-29T01:29:16.706Z,17.25
2019-03-29T01:34:18.698Z,16.93
2019-03-29T01:39:20.700Z,17.02
2019-03-29T01:44:22.699Z,17.70
2019-03-29T01:49:24.691Z,21.00
2019-03-29T01:54:26.723Z,18.82
2019-03-29T01:59:28.782Z,17.48
2019-03-29T02:04:30.755Z,17.17
2019-03-29T02:09:32.638Z,18.60
2019-03-29T02:14:34.604Z,19.40
2019-03-29T02:19:36.628Z,18.30
2019-03-29T02:24:38.673Z,18.23
2019-03-29T02:29:40.710Z,19.40
2019-03-29T02:34:43.667Z,16.60
2019-03-29T02:39:46.083Z,21.12
2019-03-29T02:44:48.055Z,19.95
2019-03-29T02:49:49.987Z,19.65
2019-03-29T02:54:51.963Z,15.43
2019-03-29T02:59:54.277Z,20.90
2019-03-29T03:04:56.126Z,20.27
2019-03-29T03:09:58.470Z,18.00
2019-03-29T03:15:00.457Z,15.63
2019-03-29T03:20:02.315Z,20.40
2019-03-29T03:25:04.586Z,16.67
2019-03-29T03:30:09.121Z,20.32
2019-03-29T03:35:11.320Z,26.93
2019-03-29T03:40:14.205Z,18.98
2019-03-29T03:45:16.193Z,15.35
2019-03-29T03:50:27.977Z,16.80
2019-03-29T03:55:30.172Z,19.32
2019-03-29T04:00:39.943Z,19.55
2019-03-29T04:05:41.961Z,17.73
2019-03-29T04:10:43.919Z,18.37
2019-03-29T04:15:45.919Z,15.65
2019-03-29T04:20:47.836Z,20.65
2019-03-29T04:25:49.751Z,17.62
2019-03-29T04:30:51.890Z,17.62
2019-03-29T04:35:53.933Z,18.98
2019-03-29T04:40:55.895Z,17.92
2019-03-29T04:45:57.826Z,18.00
2019-03-29T04:50:59.864Z,17.48
2019-03-29T04:56:01.841Z,21.10
2019-03-29T05:01:03.821Z,20.10
2019-03-29T05:06:06.273Z,20.57
2019-03-29T05:11:08.565Z,22.75
2019-03-29T05:16:10.558Z,24.80
2019-03-29T05:21:12.534Z,20.92
2019-03-29T05:26:14.545Z,22.58
2019-03-29T05:31:16.583Z,22.67
2019-03-29T05:36:18.635Z,18.07
2019-03-29T05:41:20.777Z,22.07
2019-03-29T05:46:22.872Z,20.48
2019-03-29T05:51:27.465Z,19.57
2019-03-29T05:56:29.451Z,21.05
2019-03-29T06:01:31.724Z,21.50
2019-03-29T06:06:33.943Z,21.87
2019-03-29T06:11:35.991Z,19.37
2019-03-29T06:16:39.133Z,20.57
2019-03-29T06:21:41.683Z,20.90
2019-03-29T06:26:44.034Z,23.02
2019-03-29T06:31:46.204Z,22.02
2019-03-29T06:36:49.959Z,24.25
2019-03-29T06:41:52.328Z,19.23
2019-03-29T06:46:54.315Z,21.97
2019-03-29T06:51:56.458Z,24.02
2019-03-29T06:56:58.608Z,22.90
2019-03-29T07:02:00.659Z,19.57
2019-03-29T07:07:02.727Z,20.27
2019-03-29T07:12:04.804Z,17.10
2019-03-29T07:17:10.127Z,23.87
2019-03-29T07:22:10.646Z,21.60
2019-03-29T07:27:12.639Z,20.72
2019-03-29T07:32:14.750Z,20.55
2019-03-29T07:37:16.759Z,23.65
2019-03-29T07:42:18.794Z,24.27
2019-03-29T07:47:20.752Z,23.38
2019-03-29T07:52:22.894Z,22.70
2019-03-29T07:57:24.930Z,23.57
2019-03-29T08:02:26.954Z,21.52
2019-03-29T08:07:31.464Z,24.50
2019-03-29T08:12:32.991Z,22.02
2019-03-29T08:17:35.000Z,22.45
2019-03-29T08:22:36.987Z,24.67
2019-03-29T08:27:38.999Z,22.82
2019-03-29T08:32:42.069Z,21.50
2019-03-29T08:37:44.057Z,24.47
2019-03-29T08:42:46.046Z,23.30
2019-03-29T08:47:48.055Z,22.27
2019-03-29T08:52:50.116Z,19.65
2019-03-29T08:57:52.076Z,18.92
2019-03-29T09:02:54.083Z,20.62
2019-03-29T09:07:56.499Z,20.75
2019-03-29T09:12:58.584Z,21.25
2019-03-29T09:18:00.593Z,18.87
2019-03-29T09:23:02.576Z,15.63
2019-03-29T09:28:04.625Z,14.58
2019-03-29T09:33:06.657Z,13.32
2019-03-29T09:38:08.668Z,12.63
2019-03-29T09:43:10.785Z,11.63
2019-03-29T09:48:12.766Z,12.03
2019-03-29T09:53:14.827Z,13.88
2019-03-29T09:58:17.113Z,11.25
2019-03-29T10:03:19.289Z,12.93
2019-03-29T10:08:21.343Z,9.70
2019-03-29T10:13:23.387Z,10.90
2019-03-29T10:18:25.421Z,8.40
2019-03-29T10:23:27.334Z,8.50
2019-03-29T10:28:29.398Z,7.12
2019-03-29T10:33:31.448Z,7.70
2019-03-29T10:38:33.421Z,7.25
2019-03-29T10:43:35.618Z,6.35
2019-03-29T10:48:37.599Z,4.90
2019-03-29T10:53:39.552Z,5.35
2019-03-29T10:58:44.730Z,4.75
2019-03-29T11:03:45.342Z,5.05
2019-03-29T11:08:47.313Z,6.25
2019-03-29T11:13:49.373Z,5.20
2019-03-29T11:18:51.530Z,3.40
2019-03-29T11:23:53.584Z,7.00
2019-03-29T11:28:55.589Z,4.60
2019-03-29T11:33:57.589Z,4.37
2019-03-29T11:38:59.635Z,4.58
2019-03-29T11:44:01.750Z,4.72
2019-03-29T11:49:03.809Z,5.25
2019-03-29T11:54:05.828Z,6.28
2019-03-29T11:59:07.837Z,4.58
2019-03-29T12:04:09.886Z,5.03
2019-03-29T12:09:11.941Z,5.42
2019-03-29T12:14:14.024Z,4.60
2019-03-29T12:19:16.029Z,5.08
2019-03-29T12:24:18.235Z,4.47
2019-03-29T12:29:20.227Z,6.80
2019-03-29T12:34:22.294Z,5.15
2019-03-29T12:39:24.303Z,5.28
2019-03-29T12:44:26.291Z,5.47
2019-03-29T12:49:28.295Z,6.90
2019-03-29T12:54:30.359Z,6.92
2019-03-29T12:59:33.092Z,7.62
2019-03-29T13:04:35.165Z,6.22
2019-03-29T13:09:39.602Z,6.20
2019-03-29T13:14:40.970Z,5.50
2019-03-29T13:19:42.996Z,5.78
2019-03-29T13:24:45.109Z,5.45
2019-03-29T13:29:47.184Z,5.55
2019-03-29T13:34:51.308Z,8.08
2019-03-29T13:39:52.997Z,5.65
2019-03-29T13:44:55.025Z,6.28
2019-03-29T13:49:57.036Z,5.58
2019-03-29T13:54:59.098Z,4.72
2019-03-29T14:00:01.173Z,4.35
2019-03-29T14:05:03.283Z,4.12
2019-03-29T14:10:06.355Z,5.95
2019-03-29T14:15:08.776Z,5.67
2019-03-29T14:20:10.844Z,4.70
2019-03-29T14:25:12.952Z,8.18
2019-03-29T14:30:14.976Z,4.45
2019-03-29T14:35:17.013Z,3.50
2019-03-29T14:40:19.045Z,5.30
2019-03-29T14:45:21.087Z,4.10
2019-03-29T14:50:23.101Z,3.77
2019-03-29T14:55:25.114Z,3.33
2019-03-29T15:00:37.230Z,3.40
2019-03-29T15:05:39.359Z,3.87
2019-03-29T15:10:41.406Z,3.90
2019-03-29T15:15:43.454Z,2.65
2019-03-29T15:20:53.243Z,4.87
2019-03-29T15:25:49.326Z,8.13
2019-03-29T15:30:52.506Z,3.05
2019-03-29T15:35:54.633Z,3.17
2019-03-29T15:40:56.670Z,4.25
2019-03-29T15:45:58.740Z,2.77
2019-03-29T15:51:00.784Z,4.17
2019-03-29T15:56:02.939Z,2.45
2019-03-29T16:01:05.196Z,2.70
2019-03-29T16:06:07.232Z,3.10
2019-03-29T16:11:09.381Z,3.45
2019-03-29T16:16:13.014Z,2.65
2019-03-29T16:21:15.078Z,6.12
2019-03-29T16:26:17.138Z,3.90
2019-03-29T16:31:19.172Z,2.98
2019-03-29T16:36:21.281Z,2.35
2019-03-29T16:41:23.329Z,4.15
2019-03-29T16:46:25.228Z,2.52
2019-03-29T16:51:27.231Z,5.20
2019-03-29T16:56:29.328Z,4.25
2019-03-29T17:01:31.324Z,2.90
2019-03-29T17:06:35.929Z,2.58
2019-03-29T17:11:37.871Z,3.62
2019-03-29T17:16:39.976Z,6.05
2019-03-29T17:21:42.138Z,3.90
2019-03-29T17:26:44.250Z,5.00
2019-03-29T17:31:46.607Z,3.17
2019-03-29T17:36:48.720Z,4.53
2019-03-29T17:41:55.885Z,5.97
2019-03-29T17:46:58.229Z,4.85
2019-03-29T17:52:00.253Z,5.30
2019-03-29T17:57:02.331Z,5.35
2019-03-29T18:02:09.483Z,7.35
2019-03-29T18:07:08.376Z,5.90
2019-03-29T18:12:11.470Z,6.40
2019-03-29T18:17:13.646Z,4.42
2019-03-29T18:22:17.978Z,5.70
2019-03-29T18:27:20.090Z,6.25
2019-03-29T18:32:22.226Z,7.42
2019-03-29T18:37:24.372Z,7.10
2019-03-29T18:42:26.397Z,9.40
2019-03-29T18:47:28.461Z,8.63
2019-03-29T18:52:30.529Z,7.33
2019-03-29T18:57:32.537Z,6.53
2019-03-29T19:02:34.647Z,8.18
2019-03-29T19:07:36.653Z,7.80
2019-03-29T19:12:39.044Z,8.43
2019-03-29T19:17:41.062Z,7.97
2019-03-29T19:22:43.076Z,10.08
2019-03-29T19:27:45.058Z,15.53
2019-03-29T19:32:47.055Z,10.03
2019-03-29T19:37:49.046Z,9.85
2019-03-29T19:42:51.055Z,11.75
2019-03-29T19:47:53.057Z,10.70
2019-03-29T19:52:55.034Z,11.38
2019-03-29T19:57:57.200Z,12.15
2019-03-29T20:02:59.207Z,11.57
2019-03-29T20:08:01.248Z,16.82
2019-03-29T20:13:03.335Z,14.43
2019-03-29T20:18:05.314Z,13.65
2019-03-29T20:23:07.351Z,12.82
2019-03-29T20:28:09.421Z,14.73
2019-03-29T20:33:13.286Z,17.55
2019-03-29T20:38:15.530Z,15.18
2019-03-29T20:43:17.503Z,16.30
2019-03-29T20:48:22.907Z,17.40
2019-03-29T20:57:57.024Z,16.70
2019-03-29T21:03:00.109Z,15.45
2019-03-29T21:08:08.423Z,17.15
2019-03-29T21:13:11.320Z,17.05
2019-03-29T21:18:17.356Z,15.75
2019-03-29T21:23:19.361Z,12.43
2019-03-29T21:28:23.106Z,13.93
2019-03-29T21:33:26.359Z,12.80
2019-03-29T21:38:30.596Z,16.20
2019-03-29T21:43:34.363Z,15.40
2019-03-29T21:48:37.213Z,13.10
2019-03-29T21:53:43.982Z,16.25
2019-03-29T21:58:48.851Z,16.27
2019-03-29T22:03:53.159Z,14.67
2019-03-29T22:08:57.264Z,15.65
2019-03-29T22:14:00.895Z,15.23
2019-03-29T22:19:03.486Z,15.40
2019-03-29T22:24:06.099Z,13.83
2019-03-29T22:29:08.749Z,13.80
2019-03-29T22:34:11.333Z,13.93
2019-03-29T22:39:13.951Z,13.10
2019-03-29T22:44:16.522Z,13.40
2019-03-29T22:49:19.167Z,13.53
2019-03-29T22:54:21.776Z,14.65
2019-03-29T22:59:24.431Z,14.85
2019-03-29T23:04:27.144Z,16.02
2019-03-29T23:09:29.814Z,16.45
2019-03-29T23:14:32.441Z,17.37
2019-03-29T23:19:35.011Z,17.17
2019-03-29T23:24:37.809Z,19.12
2019-03-29T23:29:40.463Z,15.48
2019-03-29T23:34:43.088Z,15.20
2019-03-29T23:39:45.750Z,17.87
2019-03-29T23:44:48.346Z,14.45
2019-03-29T23:49:50.965Z,16.77
2019-03-29T23:54:53.566Z,14.98
2019-03-29T23:59:56.173Z,15.80
